Terminal Aerodrome Forecast
Issued by NWS

Home | Current Version | Previous Version | Text Only | Print | Product List | Glossary On
Versions: 1 2 3 4 5 6 7 8 9 10 11 12 13 14
887
FTUS43 KOAX 130520
TAFSNY
TAF
KSNY 130520Z 1306/1406 18012KT 1/4SM FZFG VV001
     FM131600 21011KT 3SM BR BKN005 OVC015
     FM131900 22015G25KT P6SM SCT015 SCT250=

USA.gov is the U.S. government's official web portal to all federal, state and local government web resources and services.